Welcome to La Porte Aviation Services!

An aviation adventure awaits

Current Weather Conditions

Available data for KPPO from the past 2 hours
LA PORTE, IN
Metar
KPPO 171335Z AUTO 18005KT 10SM CLR 16/13 A3021 RMK AO2 T01630125

13:35 UTC

Wind: 180° 5kt

Visibility: 10 SM

Sky:

Temp: 16 deg C / 60.8 deg F

Dewpoint: 13 deg C / 55.4 deg F

Pressure: 30.21 inHg

Pireps (2)
ORD UA /OV OXI/TM 1327/FL220/TP CRJ2/TB NEG
ORD UA /OV JOT199019/TM 1205/FL100/TP B737/TB OCNL/RM SMOOTH FL270-FL100 DURD KMDW AWC-WEB/

Connect with us on Facebook!

Facebook By Weblizar Powered By Weblizar